sensor_id;sensor_type;location;lat;lon;timestamp;P1;durP1;ratioP1;P2;durP2;ratioP2
15356;SDS011;7778;48.792;9.260;2024-01-27T00:01:29;2.83;;;1.83;;
15356;SDS011;7778;48.792;9.260;2024-01-27T00:04:16;2.30;;;1.85;;
15356;SDS011;7778;48.792;9.260;2024-01-27T00:07:02;3.72;;;1.58;;
15356;SDS011;7778;48.792;9.260;2024-01-27T00:09:47;3.17;;;1.50;;
15356;SDS011;7778;48.792;9.260;2024-01-27T00:12:33;2.95;;;1.42;;
15356;SDS011;7778;48.792;9.260;2024-01-27T00:15:19;5.50;;;1.77;;
15356;SDS011;7778;48.792;9.260;2024-01-27T00:18:05;1.88;;;1.30;;
15356;SDS011;7778;48.792;9.260;2024-01-27T00:20:52;2.05;;;1.33;;
15356;SDS011;7778;48.792;9.260;2024-01-27T00:23:38;3.50;;;1.42;;
15356;SDS011;7778;48.792;9.260;2024-01-27T00:26:24;1.60;;;1.20;;
15356;SDS011;7778;48.792;9.260;2024-01-27T00:29:10;4.57;;;1.80;;
15356;SDS011;7778;48.792;9.260;2024-01-27T00:31:55;4.05;;;1.42;;
15356;SDS011;7778;48.792;9.260;2024-01-27T00:34:41;3.42;;;2.00;;
15356;SDS011;7778;48.792;9.260;2024-01-27T00:37:28;7.38;;;2.20;;
15356;SDS011;7778;48.792;9.260;2024-01-27T00:40:15;3.15;;;1.88;;
15356;SDS011;7778;48.792;9.260;2024-01-27T00:43:02;4.45;;;1.65;;
15356;SDS011;7778;48.792;9.260;2024-01-27T00:45:48;1.95;;;1.10;;
15356;SDS011;7778;48.792;9.260;2024-01-27T00:48:33;1.90;;;1.30;;
15356;SDS011;7778;48.792;9.260;2024-01-27T00:51:19;4.03;;;1.35;;
15356;SDS011;7778;48.792;9.260;2024-01-27T00:54:06;3.40;;;2.05;;
15356;SDS011;7778;48.792;9.260;2024-01-27T00:56:52;1.30;;;1.20;;
15356;SDS011;7778;48.792;9.260;2024-01-27T00:59:38;2.95;;;1.27;;
15356;SDS011;7778;48.792;9.260;2024-01-27T01:02:24;7.35;;;1.50;;
15356;SDS011;7778;48.792;9.260;2024-01-27T01:05:10;2.22;;;1.23;;
15356;SDS011;7778;48.792;9.260;2024-01-27T01:07:55;4.35;;;1.83;;
15356;SDS011;7778;48.792;9.260;2024-01-27T01:10:42;1.17;;;1.08;;
15356;SDS011;7778;48.792;9.260;2024-01-27T01:13:28;6.22;;;2.00;;
15356;SDS011;7778;48.792;9.260;2024-01-27T01:16:14;4.03;;;1.45;;
15356;SDS011;7778;48.792;9.260;2024-01-27T01:19:00;2.15;;;1.27;;
15356;SDS011;7778;48.792;9.260;2024-01-27T01:21:45;2.63;;;1.52;;
15356;SDS011;7778;48.792;9.260;2024-01-27T01:24:31;3.85;;;1.58;;
15356;SDS011;7778;48.792;9.260;2024-01-27T01:27:18;3.13;;;1.63;;
15356;SDS011;7778;48.792;9.260;2024-01-27T01:30:04;4.38;;;1.80;;
15356;SDS011;7778;48.792;9.260;2024-01-27T01:32:51;2.33;;;1.40;;
15356;SDS011;7778;48.792;9.260;2024-01-27T01:35:37;1.73;;;1.40;;
15356;SDS011;7778;48.792;9.260;2024-01-27T01:38:22;2.90;;;1.40;;
15356;SDS011;7778;48.792;9.260;2024-01-27T01:41:08;4.97;;;2.20;;
15356;SDS011;7778;48.792;9.260;2024-01-27T01:43:55;3.28;;;1.67;;
15356;SDS011;7778;48.792;9.260;2024-01-27T01:46:41;4.32;;;1.52;;
15356;SDS011;7778;48.792;9.260;2024-01-27T01:49:27;4.20;;;1.75;;
15356;SDS011;7778;48.792;9.260;2024-01-27T01:52:13;2.00;;;1.60;;
15356;SDS011;7778;48.792;9.260;2024-01-27T01:55:04;5.15;;;1.88;;
15356;SDS011;7778;48.792;9.260;2024-01-27T01:57:51;2.95;;;1.48;;
15356;SDS011;7778;48.792;9.260;2024-01-27T02:00:38;4.63;;;1.50;;
15356;SDS011;7778;48.792;9.260;2024-01-27T02:03:30;2.38;;;1.20;;
15356;SDS011;7778;48.792;9.260;2024-01-27T02:06:15;5.50;;;1.95;;
15356;SDS011;7778;48.792;9.260;2024-01-27T02:09:01;4.00;;;1.45;;
15356;SDS011;7778;48.792;9.260;2024-01-27T02:11:47;1.38;;;1.27;;
15356;SDS011;7778;48.792;9.260;2024-01-27T02:14:32;2.75;;;1.13;;
15356;SDS011;7778;48.792;9.260;2024-01-27T02:17:20;2.25;;;1.42;;
15356;SDS011;7778;48.792;9.260;2024-01-27T02:20:06;2.30;;;1.65;;
15356;SDS011;7778;48.792;9.260;2024-01-27T02:22:55;1.98;;;1.40;;
15356;SDS011;7778;48.792;9.260;2024-01-27T02:25:42;2.17;;;1.80;;
15356;SDS011;7778;48.792;9.260;2024-01-27T02:28:28;3.25;;;1.52;;
15356;SDS011;7778;48.792;9.260;2024-01-27T02:31:15;2.60;;;1.50;;
15356;SDS011;7778;48.792;9.260;2024-01-27T02:34:01;1.27;;;1.20;;
15356;SDS011;7778;48.792;9.260;2024-01-27T02:36:46;5.68;;;1.52;;
15356;SDS011;7778;48.792;9.260;2024-01-27T02:39:32;6.43;;;1.52;;
15356;SDS011;7778;48.792;9.260;2024-01-27T02:42:19;2.13;;;1.38;;
15356;SDS011;7778;48.792;9.260;2024-01-27T02:45:05;6.57;;;2.10;;
15356;SDS011;7778;48.792;9.260;2024-01-27T02:47:51;4.57;;;1.80;;
15356;SDS011;7778;48.792;9.260;2024-01-27T02:50:37;2.00;;;1.30;;
15356;SDS011;7778;48.792;9.260;2024-01-27T02:53:23;2.58;;;1.60;;
15356;SDS011;7778;48.792;9.260;2024-01-27T02:56:08;1.85;;;1.20;;
15356;SDS011;7778;48.792;9.260;2024-01-27T02:58:55;6.55;;;1.58;;
15356;SDS011;7778;48.792;9.260;2024-01-27T03:01:40;2.58;;;1.63;;
15356;SDS011;7778;48.792;9.260;2024-01-27T03:04:26;5.60;;;1.33;;
15356;SDS011;7778;48.792;9.260;2024-01-27T03:07:11;4.25;;;1.38;;
15356;SDS011;7778;48.792;9.260;2024-01-27T03:09:57;3.67;;;2.15;;
15356;SDS011;7778;48.792;9.260;2024-01-27T03:12:43;3.05;;;1.70;;
15356;SDS011;7778;48.792;9.260;2024-01-27T03:15:30;1.88;;;1.10;;
15356;SDS011;7778;48.792;9.260;2024-01-27T03:18:16;6.38;;;1.85;;
15356;SDS011;7778;48.792;9.260;2024-01-27T03:21:01;3.80;;;2.00;;
15356;SDS011;7778;48.792;9.260;2024-01-27T03:23:47;2.63;;;1.67;;
15356;SDS011;7778;48.792;9.260;2024-01-27T03:26:33;3.67;;;1.80;;
15356;SDS011;7778;48.792;9.260;2024-01-27T03:29:19;1.77;;;1.40;;
15356;SDS011;7778;48.792;9.260;2024-01-27T03:32:06;4.82;;;2.05;;
15356;SDS011;7778;48.792;9.260;2024-01-27T03:34:51;5.05;;;1.98;;
15356;SDS011;7778;48.792;9.260;2024-01-27T03:37:37;4.38;;;1.30;;
15356;SDS011;7778;48.792;9.260;2024-01-27T03:40:22;1.45;;;1.27;;
15356;SDS011;7778;48.792;9.260;2024-01-27T03:43:08;12.90;;;1.67;;
15356;SDS011;7778;48.792;9.260;2024-01-27T03:45:53;3.00;;;1.67;;
15356;SDS011;7778;48.792;9.260;2024-01-27T03:48:40;3.28;;;2.28;;
15356;SDS011;7778;48.792;9.260;2024-01-27T03:51:26;6.00;;;2.30;;
15356;SDS011;7778;48.792;9.260;2024-01-27T03:54:12;2.55;;;1.50;;
15356;SDS011;7778;48.792;9.260;2024-01-27T03:56:57;4.47;;;2.05;;
15356;SDS011;7778;48.792;9.260;2024-01-27T03:59:43;2.08;;;1.50;;
15356;SDS011;7778;48.792;9.260;2024-01-27T04:02:28;11.18;;;2.30;;
15356;SDS011;7778;48.792;9.260;2024-01-27T04:05:15;4.47;;;1.40;;
15356;SDS011;7778;48.792;9.260;2024-01-27T04:08:01;3.80;;;1.20;;
15356;SDS011;7778;48.792;9.260;2024-01-27T04:10:47;4.40;;;1.73;;
15356;SDS011;7778;48.792;9.260;2024-01-27T04:13:32;5.97;;;1.75;;
15356;SDS011;7778;48.792;9.260;2024-01-27T04:16:18;2.05;;;1.30;;
15356;SDS011;7778;48.792;9.260;2024-01-27T04:19:04;2.83;;;1.33;;
15356;SDS011;7778;48.792;9.260;2024-01-27T04:21:51;2.50;;;1.58;;
15356;SDS011;7778;48.792;9.260;2024-01-27T04:24:36;6.60;;;1.80;;
15356;SDS011;7778;48.792;9.260;2024-01-27T04:27:23;4.32;;;1.67;;
15356;SDS011;7778;48.792;9.260;2024-01-27T04:30:10;5.40;;;2.28;;
15356;SDS011;7778;48.792;9.260;2024-01-27T04:32:57;2.25;;;1.50;;
15356;SDS011;7778;48.792;9.260;2024-01-27T04:35:43;3.58;;;1.17;;
15356;SDS011;7778;48.792;9.260;2024-01-27T04:38:30;3.30;;;1.65;;
15356;SDS011;7778;48.792;9.260;2024-01-27T04:41:15;2.05;;;1.70;;
15356;SDS011;7778;48.792;9.260;2024-01-27T04:44:01;3.15;;;2.10;;
15356;SDS011;7778;48.792;9.260;2024-01-27T04:46:46;5.95;;;1.88;;
15356;SDS011;7778;48.792;9.260;2024-01-27T04:49:32;2.00;;;1.48;;
15356;SDS011;7778;48.792;9.260;2024-01-27T04:52:18;5.13;;;1.67;;
15356;SDS011;7778;48.792;9.260;2024-01-27T04:55:06;12.63;;;2.08;;
15356;SDS011;7778;48.792;9.260;2024-01-27T04:57:52;1.92;;;1.40;;
15356;SDS011;7778;48.792;9.260;2024-01-27T05:00:38;11.13;;;3.33;;
15356;SDS011;7778;48.792;9.260;2024-01-27T05:03:23;2.97;;;1.70;;
15356;SDS011;7778;48.792;9.260;2024-01-27T05:06:09;2.53;;;1.88;;
15356;SDS011;7778;48.792;9.260;2024-01-27T05:08:55;5.22;;;2.20;;
15356;SDS011;7778;48.792;9.260;2024-01-27T05:11:41;2.88;;;1.85;;
15356;SDS011;7778;48.792;9.260;2024-01-27T05:14:29;2.70;;;2.05;;
15356;SDS011;7778;48.792;9.260;2024-01-27T05:17:14;3.65;;;2.20;;
15356;SDS011;7778;48.792;9.260;2024-01-27T05:20:00;7.38;;;2.22;;
15356;SDS011;7778;48.792;9.260;2024-01-27T05:22:48;2.42;;;1.80;;
15356;SDS011;7778;48.792;9.260;2024-01-27T05:25:33;3.03;;;1.45;;
15356;SDS011;7778;48.792;9.260;2024-01-27T05:28:20;6.28;;;2.15;;
15356;SDS011;7778;48.792;9.260;2024-01-27T05:31:06;6.25;;;2.00;;
15356;SDS011;7778;48.792;9.260;2024-01-27T05:33:52;7.47;;;2.40;;
15356;SDS011;7778;48.792;9.260;2024-01-27T05:36:38;3.47;;;1.63;;
15356;SDS011;7778;48.792;9.260;2024-01-27T05:39:24;3.20;;;2.10;;
15356;SDS011;7778;48.792;9.260;2024-01-27T05:42:09;2.83;;;1.95;;
15356;SDS011;7778;48.792;9.260;2024-01-27T05:44:56;5.40;;;2.42;;
15356;SDS011;7778;48.792;9.260;2024-01-27T05:47:42;4.13;;;1.75;;
15356;SDS011;7778;48.792;9.260;2024-01-27T05:50:27;2.22;;;1.73;;
15356;SDS011;7778;48.792;9.260;2024-01-27T05:53:15;8.50;;;1.70;;
15356;SDS011;7778;48.792;9.260;2024-01-27T05:56:01;4.68;;;2.10;;
15356;SDS011;7778;48.792;9.260;2024-01-27T05:58:47;6.47;;;1.83;;
15356;SDS011;7778;48.792;9.260;2024-01-27T06:01:35;4.50;;;1.85;;
15356;SDS011;7778;48.792;9.260;2024-01-27T06:04:20;3.15;;;1.92;;
15356;SDS011;7778;48.792;9.260;2024-01-27T06:07:06;6.57;;;2.17;;
15356;SDS011;7778;48.792;9.260;2024-01-27T06:09:52;4.82;;;2.42;;
15356;SDS011;7778;48.792;9.260;2024-01-27T06:12:37;13.43;;;2.42;;
15356;SDS011;7778;48.792;9.260;2024-01-27T06:15:24;4.65;;;2.30;;
15356;SDS011;7778;48.792;9.260;2024-01-27T06:18:11;2.22;;;1.83;;
15356;SDS011;7778;48.792;9.260;2024-01-27T06:20:57;3.20;;;1.90;;
15356;SDS011;7778;48.792;9.260;2024-01-27T06:23:43;6.07;;;2.10;;
15356;SDS011;7778;48.792;9.260;2024-01-27T06:26:28;2.83;;;2.13;;
15356;SDS011;7778;48.792;9.260;2024-01-27T06:29:14;2.45;;;1.95;;
15356;SDS011;7778;48.792;9.260;2024-01-27T06:32:00;2.85;;;1.70;;
15356;SDS011;7778;48.792;9.260;2024-01-27T06:34:46;5.95;;;1.90;;
15356;SDS011;7778;48.792;9.260;2024-01-27T06:37:32;4.57;;;2.50;;
15356;SDS011;7778;48.792;9.260;2024-01-27T06:40:19;2.78;;;1.30;;
15356;SDS011;7778;48.792;9.260;2024-01-27T06:43:04;4.55;;;1.85;;
15356;SDS011;7778;48.792;9.260;2024-01-27T06:45:50;1.23;;;1.13;;
15356;SDS011;7778;48.792;9.260;2024-01-27T06:48:35;2.90;;;1.60;;
15356;SDS011;7778;48.792;9.260;2024-01-27T06:51:22;6.13;;;1.67;;
15356;SDS011;7778;48.792;9.260;2024-01-27T06:54:08;3.88;;;1.88;;
15356;SDS011;7778;48.792;9.260;2024-01-27T06:56:53;1.40;;;1.30;;
15356;SDS011;7778;48.792;9.260;2024-01-27T06:59:39;3.85;;;2.35;;
15356;SDS011;7778;48.792;9.260;2024-01-27T07:02:24;2.42;;;1.70;;
15356;SDS011;7778;48.792;9.260;2024-01-27T07:05:10;6.43;;;1.98;;
15356;SDS011;7778;48.792;9.260;2024-01-27T07:07:59;4.80;;;1.83;;
15356;SDS011;7778;48.792;9.260;2024-01-27T07:10:46;3.47;;;2.47;;
15356;SDS011;7778;48.792;9.260;2024-01-27T07:13:31;3.92;;;1.70;;
15356;SDS011;7778;48.792;9.260;2024-01-27T07:16:17;3.90;;;2.13;;
15356;SDS011;7778;48.792;9.260;2024-01-27T07:19:03;5.65;;;2.28;;
15356;SDS011;7778;48.792;9.260;2024-01-27T07:21:50;5.55;;;2.33;;
15356;SDS011;7778;48.792;9.260;2024-01-27T07:24:37;6.78;;;2.00;;
15356;SDS011;7778;48.792;9.260;2024-01-27T07:27:23;1.83;;;1.63;;
15356;SDS011;7778;48.792;9.260;2024-01-27T07:30:09;6.65;;;2.72;;
15356;SDS011;7778;48.792;9.260;2024-01-27T07:32:55;3.28;;;1.90;;
15356;SDS011;7778;48.792;9.260;2024-01-27T07:35:41;5.97;;;2.50;;
15356;SDS011;7778;48.792;9.260;2024-01-27T07:38:27;4.85;;;2.35;;
15356;SDS011;7778;48.792;9.260;2024-01-27T07:41:14;3.08;;;1.75;;
15356;SDS011;7778;48.792;9.260;2024-01-27T07:44:06;2.25;;;1.60;;
15356;SDS011;7778;48.792;9.260;2024-01-27T07:46:53;5.00;;;1.88;;
15356;SDS011;7778;48.792;9.260;2024-01-27T07:49:38;7.10;;;1.95;;
15356;SDS011;7778;48.792;9.260;2024-01-27T07:52:24;3.88;;;2.00;;
15356;SDS011;7778;48.792;9.260;2024-01-27T07:55:09;5.45;;;2.33;;
15356;SDS011;7778;48.792;9.260;2024-01-27T07:57:57;2.65;;;1.73;;
15356;SDS011;7778;48.792;9.260;2024-01-27T08:00:43;6.40;;;2.95;;
15356;SDS011;7778;48.792;9.260;2024-01-27T08:03:28;7.63;;;2.30;;
15356;SDS011;7778;48.792;9.260;2024-01-27T08:06:15;7.35;;;2.85;;
15356;SDS011;7778;48.792;9.260;2024-01-27T08:09:02;10.40;;;3.00;;
15356;SDS011;7778;48.792;9.260;2024-01-27T08:11:48;11.68;;;3.67;;
15356;SDS011;7778;48.792;9.260;2024-01-27T08:14:37;7.97;;;2.83;;
15356;SDS011;7778;48.792;9.260;2024-01-27T08:17:23;8.25;;;3.80;;
15356;SDS011;7778;48.792;9.260;2024-01-27T08:20:09;8.52;;;4.72;;
15356;SDS011;7778;48.792;9.260;2024-01-27T08:22:55;7.65;;;4.10;;
15356;SDS011;7778;48.792;9.260;2024-01-27T08:25:41;10.10;;;4.80;;
15356;SDS011;7778;48.792;9.260;2024-01-27T08:28:29;8.38;;;4.32;;
15356;SDS011;7778;48.792;9.260;2024-01-27T08:31:16;5.95;;;3.83;;
15356;SDS011;7778;48.792;9.260;2024-01-27T08:34:02;5.28;;;3.58;;
15356;SDS011;7778;48.792;9.260;2024-01-27T08:36:47;8.23;;;3.25;;
15356;SDS011;7778;48.792;9.260;2024-01-27T08:39:33;7.35;;;3.83;;
15356;SDS011;7778;48.792;9.260;2024-01-27T08:42:18;13.73;;;3.55;;
15356;SDS011;7778;48.792;9.260;2024-01-27T08:45:04;6.32;;;3.70;;
15356;SDS011;7778;48.792;9.260;2024-01-27T08:47:52;5.72;;;3.65;;
15356;SDS011;7778;48.792;9.260;2024-01-27T08:50:38;7.28;;;3.90;;
15356;SDS011;7778;48.792;9.260;2024-01-27T08:53:24;22.58;;;5.82;;
15356;SDS011;7778;48.792;9.260;2024-01-27T08:56:09;6.57;;;4.10;;
15356;SDS011;7778;48.792;9.260;2024-01-27T08:58:57;8.88;;;4.75;;
15356;SDS011;7778;48.792;9.260;2024-01-27T09:01:43;10.27;;;4.28;;
15356;SDS011;7778;48.792;9.260;2024-01-27T09:04:30;9.35;;;5.10;;
15356;SDS011;7778;48.792;9.260;2024-01-27T09:07:16;9.10;;;3.83;;
15356;SDS011;7778;48.792;9.260;2024-01-27T09:10:01;7.85;;;2.72;;
15356;SDS011;7778;48.792;9.260;2024-01-27T09:12:48;4.88;;;3.33;;
15356;SDS011;7778;48.792;9.260;2024-01-27T09:15:33;13.63;;;2.92;;
15356;SDS011;7778;48.792;9.260;2024-01-27T09:18:19;7.15;;;3.72;;
15356;SDS011;7778;48.792;9.260;2024-01-27T09:21:07;7.88;;;3.55;;
15356;SDS011;7778;48.792;9.260;2024-01-27T09:23:53;11.77;;;3.92;;
15356;SDS011;7778;48.792;9.260;2024-01-27T09:26:39;8.35;;;3.78;;
15356;SDS011;7778;48.792;9.260;2024-01-27T09:29:25;8.20;;;3.15;;
15356;SDS011;7778;48.792;9.260;2024-01-27T09:32:11;5.85;;;3.58;;
15356;SDS011;7778;48.792;9.260;2024-01-27T09:34:57;7.13;;;3.90;;
15356;SDS011;7778;48.792;9.260;2024-01-27T09:37:44;6.78;;;3.95;;
15356;SDS011;7778;48.792;9.260;2024-01-27T09:40:30;8.40;;;3.83;;
15356;SDS011;7778;48.792;9.260;2024-01-27T09:43:15;9.50;;;4.07;;
15356;SDS011;7778;48.792;9.260;2024-01-27T09:46:03;8.35;;;3.72;;
15356;SDS011;7778;48.792;9.260;2024-01-27T09:48:48;6.78;;;3.63;;
15356;SDS011;7778;48.792;9.260;2024-01-27T09:51:35;4.40;;;2.20;;
15356;SDS011;7778;48.792;9.260;2024-01-27T09:54:22;7.70;;;2.95;;
15356;SDS011;7778;48.792;9.260;2024-01-27T09:57:09;4.05;;;2.88;;
15356;SDS011;7778;48.792;9.260;2024-01-27T09:59:57;4.82;;;2.75;;
15356;SDS011;7778;48.792;9.260;2024-01-27T10:02:44;5.60;;;2.50;;
15356;SDS011;7778;48.792;9.260;2024-01-27T10:05:32;5.10;;;1.88;;
15356;SDS011;7778;48.792;9.260;2024-01-27T10:08:17;5.35;;;2.63;;
15356;SDS011;7778;48.792;9.260;2024-01-27T10:11:06;2.53;;;2.20;;
15356;SDS011;7778;48.792;9.260;2024-01-27T10:13:53;5.40;;;2.35;;
15356;SDS011;7778;48.792;9.260;2024-01-27T10:16:41;4.97;;;2.25;;
15356;SDS011;7778;48.792;9.260;2024-01-27T10:19:27;3.08;;;2.03;;
15356;SDS011;7778;48.792;9.260;2024-01-27T10:22:13;4.03;;;2.35;;
15356;SDS011;7778;48.792;9.260;2024-01-27T10:24:59;3.03;;;2.03;;
15356;SDS011;7778;48.792;9.260;2024-01-27T10:27:47;3.95;;;2.10;;
15356;SDS011;7778;48.792;9.260;2024-01-27T10:30:33;3.63;;;1.98;;
15356;SDS011;7778;48.792;9.260;2024-01-27T10:33:19;5.85;;;2.47;;
15356;SDS011;7778;48.792;9.260;2024-01-27T10:36:06;5.05;;;2.50;;
15356;SDS011;7778;48.792;9.260;2024-01-27T10:38:52;4.60;;;2.25;;
15356;SDS011;7778;48.792;9.260;2024-01-27T10:41:38;12.38;;;3.28;;
15356;SDS011;7778;48.792;9.260;2024-01-27T10:44:26;9.65;;;2.58;;
15356;SDS011;7778;48.792;9.260;2024-01-27T10:47:13;3.85;;;2.15;;
15356;SDS011;7778;48.792;9.260;2024-01-27T10:50:04;5.72;;;2.97;;
15356;SDS011;7778;48.792;9.260;2024-01-27T10:52:54;6.10;;;2.72;;
15356;SDS011;7778;48.792;9.260;2024-01-27T10:55:43;4.55;;;2.10;;
15356;SDS011;7778;48.792;9.260;2024-01-27T10:58:30;7.50;;;2.83;;
15356;SDS011;7778;48.792;9.260;2024-01-27T11:01:17;4.95;;;2.00;;
15356;SDS011;7778;48.792;9.260;2024-01-27T11:04:06;3.47;;;2.38;;
15356;SDS011;7778;48.792;9.260;2024-01-27T11:06:57;4.63;;;2.22;;
15356;SDS011;7778;48.792;9.260;2024-01-27T11:09:46;4.53;;;2.03;;
15356;SDS011;7778;48.792;9.260;2024-01-27T11:12:34;3.72;;;2.22;;
15356;SDS011;7778;48.792;9.260;2024-01-27T11:15:21;6.70;;;2.70;;
15356;SDS011;7778;48.792;9.260;2024-01-27T11:18:15;8.00;;;1.83;;
15356;SDS011;7778;48.792;9.260;2024-01-27T11:21:00;6.80;;;2.53;;
15356;SDS011;7778;48.792;9.260;2024-01-27T11:23:50;3.97;;;2.10;;
15356;SDS011;7778;48.792;9.260;2024-01-27T11:26:35;5.60;;;2.67;;
15356;SDS011;7778;48.792;9.260;2024-01-27T11:29:21;4.00;;;2.50;;
15356;SDS011;7778;48.792;9.260;2024-01-27T11:32:07;7.95;;;2.78;;
15356;SDS011;7778;48.792;9.260;2024-01-27T11:34:55;4.57;;;2.22;;
15356;SDS011;7778;48.792;9.260;2024-01-27T11:37:41;13.70;;;2.85;;
15356;SDS011;7778;48.792;9.260;2024-01-27T11:40:27;6.90;;;2.25;;
15356;SDS011;7778;48.792;9.260;2024-01-27T11:43:13;7.30;;;2.53;;
15356;SDS011;7778;48.792;9.260;2024-01-27T11:45:59;4.63;;;1.80;;
15356;SDS011;7778;48.792;9.260;2024-01-27T11:48:45;13.05;;;2.33;;
15356;SDS011;7778;48.792;9.260;2024-01-27T11:51:33;5.10;;;1.85;;
15356;SDS011;7778;48.792;9.260;2024-01-27T11:54:19;5.47;;;2.00;;
15356;SDS011;7778;48.792;9.260;2024-01-27T11:57:05;5.63;;;1.95;;
15356;SDS011;7778;48.792;9.260;2024-01-27T11:59:51;5.15;;;2.20;;
15356;SDS011;7778;48.792;9.260;2024-01-27T12:02:37;5.50;;;2.25;;
15356;SDS011;7778;48.792;9.260;2024-01-27T12:05:22;6.28;;;2.53;;
15356;SDS011;7778;48.792;9.260;2024-01-27T12:08:09;2.10;;;1.92;;
15356;SDS011;7778;48.792;9.260;2024-01-27T12:10:55;2.95;;;2.15;;
15356;SDS011;7778;48.792;9.260;2024-01-27T12:13:41;10.20;;;2.75;;
15356;SDS011;7778;48.792;9.260;2024-01-27T12:16:26;3.17;;;1.98;;
15356;SDS011;7778;48.792;9.260;2024-01-27T12:19:13;5.28;;;2.53;;
15356;SDS011;7778;48.792;9.260;2024-01-27T12:21:59;4.47;;;1.85;;
15356;SDS011;7778;48.792;9.260;2024-01-27T12:24:46;6.30;;;2.60;;
15356;SDS011;7778;48.792;9.260;2024-01-27T12:27:32;3.38;;;2.03;;
15356;SDS011;7778;48.792;9.260;2024-01-27T12:30:18;3.55;;;2.22;;
15356;SDS011;7778;48.792;9.260;2024-01-27T12:33:09;5.18;;;2.58;;
15356;SDS011;7778;48.792;9.260;2024-01-27T12:35:57;5.95;;;2.45;;
15356;SDS011;7778;48.792;9.260;2024-01-27T12:38:42;4.53;;;2.35;;
15356;SDS011;7778;48.792;9.260;2024-01-27T12:41:33;6.35;;;2.42;;
15356;SDS011;7778;48.792;9.260;2024-01-27T12:44:19;5.68;;;2.75;;
15356;SDS011;7778;48.792;9.260;2024-01-27T12:47:05;10.75;;;2.60;;
15356;SDS011;7778;48.792;9.260;2024-01-27T12:49:51;8.63;;;2.92;;
15356;SDS011;7778;48.792;9.260;2024-01-27T12:52:38;7.93;;;2.88;;
15356;SDS011;7778;48.792;9.260;2024-01-27T12:55:24;5.65;;;2.90;;
15356;SDS011;7778;48.792;9.260;2024-01-27T12:58:11;6.50;;;2.67;;
15356;SDS011;7778;48.792;9.260;2024-01-27T13:00:56;11.35;;;3.75;;
15356;SDS011;7778;48.792;9.260;2024-01-27T13:03:42;7.57;;;2.67;;
15356;SDS011;7778;48.792;9.260;2024-01-27T13:06:31;8.30;;;2.45;;
15356;SDS011;7778;48.792;9.260;2024-01-27T13:09:16;6.75;;;2.50;;
15356;SDS011;7778;48.792;9.260;2024-01-27T13:12:04;3.78;;;2.58;;
15356;SDS011;7778;48.792;9.260;2024-01-27T13:14:59;4.93;;;2.63;;
15356;SDS011;7778;48.792;9.260;2024-01-27T13:17:45;8.23;;;3.40;;
15356;SDS011;7778;48.792;9.260;2024-01-27T13:20:30;9.35;;;2.70;;
15356;SDS011;7778;48.792;9.260;2024-01-27T13:23:16;8.15;;;3.22;;
15356;SDS011;7778;48.792;9.260;2024-01-27T13:26:02;5.43;;;2.63;;
15356;SDS011;7778;48.792;9.260;2024-01-27T13:28:48;5.35;;;2.70;;
15356;SDS011;7778;48.792;9.260;2024-01-27T13:31:35;10.73;;;2.60;;
15356;SDS011;7778;48.792;9.260;2024-01-27T13:34:20;4.97;;;2.25;;
15356;SDS011;7778;48.792;9.260;2024-01-27T13:37:06;6.72;;;3.28;;
15356;SDS011;7778;48.792;9.260;2024-01-27T13:39:53;4.70;;;2.58;;
15356;SDS011;7778;48.792;9.260;2024-01-27T13:42:40;9.13;;;3.13;;
15356;SDS011;7778;48.792;9.260;2024-01-27T13:45:26;4.10;;;2.65;;
15356;SDS011;7778;48.792;9.260;2024-01-27T13:48:13;7.75;;;3.50;;
15356;SDS011;7778;48.792;9.260;2024-01-27T13:50:59;5.05;;;2.13;;
15356;SDS011;7778;48.792;9.260;2024-01-27T13:53:44;12.27;;;3.00;;
15356;SDS011;7778;48.792;9.260;2024-01-27T13:56:30;3.22;;;2.10;;
15356;SDS011;7778;48.792;9.260;2024-01-27T13:59:16;4.97;;;3.00;;
15356;SDS011;7778;48.792;9.260;2024-01-27T14:02:03;5.32;;;2.97;;
15356;SDS011;7778;48.792;9.260;2024-01-27T14:04:50;8.18;;;2.28;;
15356;SDS011;7778;48.792;9.260;2024-01-27T14:07:36;3.13;;;2.08;;
15356;SDS011;7778;48.792;9.260;2024-01-27T14:10:22;6.32;;;2.40;;
15356;SDS011;7778;48.792;9.260;2024-01-27T14:13:09;6.63;;;1.95;;
15356;SDS011;7778;48.792;9.260;2024-01-27T14:15:54;3.65;;;2.05;;
15356;SDS011;7778;48.792;9.260;2024-01-27T14:18:41;4.63;;;1.90;;
15356;SDS011;7778;48.792;9.260;2024-01-27T14:21:28;3.25;;;1.92;;
15356;SDS011;7778;48.792;9.260;2024-01-27T14:24:14;10.88;;;2.50;;
15356;SDS011;7778;48.792;9.260;2024-01-27T14:26:59;3.70;;;2.30;;
15356;SDS011;7778;48.792;9.260;2024-01-27T14:29:45;9.35;;;1.92;;
15356;SDS011;7778;48.792;9.260;2024-01-27T14:32:31;5.65;;;1.90;;
15356;SDS011;7778;48.792;9.260;2024-01-27T14:35:16;5.25;;;2.00;;
15356;SDS011;7778;48.792;9.260;2024-01-27T14:38:03;2.45;;;1.77;;
15356;SDS011;7778;48.792;9.260;2024-01-27T14:40:52;5.25;;;2.38;;
15356;SDS011;7778;48.792;9.260;2024-01-27T14:43:38;2.20;;;1.65;;
15356;SDS011;7778;48.792;9.260;2024-01-27T14:46:24;4.88;;;1.60;;
15356;SDS011;7778;48.792;9.260;2024-01-27T14:49:09;8.50;;;1.92;;
15356;SDS011;7778;48.792;9.260;2024-01-27T14:51:55;4.18;;;1.60;;
15356;SDS011;7778;48.792;9.260;2024-01-27T14:54:42;7.70;;;2.08;;
15356;SDS011;7778;48.792;9.260;2024-01-27T14:57:28;4.45;;;1.45;;
15356;SDS011;7778;48.792;9.260;2024-01-27T15:00:13;3.33;;;1.27;;
15356;SDS011;7778;48.792;9.260;2024-01-27T15:03:00;1.33;;;1.08;;
15356;SDS011;7778;48.792;9.260;2024-01-27T15:05:46;6.78;;;1.27;;
15356;SDS011;7778;48.792;9.260;2024-01-27T15:08:32;4.90;;;1.30;;
15356;SDS011;7778;48.792;9.260;2024-01-27T15:11:19;2.50;;;1.45;;
15356;SDS011;7778;48.792;9.260;2024-01-27T15:14:05;2.42;;;1.33;;
15356;SDS011;7778;48.792;9.260;2024-01-27T15:16:51;4.57;;;1.20;;
15356;SDS011;7778;48.792;9.260;2024-01-27T15:19:37;2.40;;;1.27;;
15356;SDS011;7778;48.792;9.260;2024-01-27T15:22:23;3.47;;;1.58;;
15356;SDS011;7778;48.792;9.260;2024-01-27T15:25:09;1.48;;;0.82;;
15356;SDS011;7778;48.792;9.260;2024-01-27T15:27:55;4.82;;;1.80;;
15356;SDS011;7778;48.792;9.260;2024-01-27T15:30:41;2.85;;;0.73;;
15356;SDS011;7778;48.792;9.260;2024-01-27T15:33:29;4.10;;;1.38;;
15356;SDS011;7778;48.792;9.260;2024-01-27T15:36:15;2.33;;;1.23;;
15356;SDS011;7778;48.792;9.260;2024-01-27T15:39:00;6.05;;;1.50;;
15356;SDS011;7778;48.792;9.260;2024-01-27T15:41:46;3.08;;;1.52;;
15356;SDS011;7778;48.792;9.260;2024-01-27T15:44:33;6.15;;;1.30;;
15356;SDS011;7778;48.792;9.260;2024-01-27T15:47:19;1.35;;;1.05;;
15356;SDS011;7778;48.792;9.260;2024-01-27T15:50:04;3.28;;;1.70;;
15356;SDS011;7778;48.792;9.260;2024-01-27T15:52:51;1.60;;;1.00;;
15356;SDS011;7778;48.792;9.260;2024-01-27T15:55:37;2.88;;;1.48;;
15356;SDS011;7778;48.792;9.260;2024-01-27T15:58:22;4.13;;;1.73;;
15356;SDS011;7778;48.792;9.260;2024-01-27T16:01:09;1.17;;;0.68;;
15356;SDS011;7778;48.792;9.260;2024-01-27T16:03:55;2.45;;;1.63;;
15356;SDS011;7778;48.792;9.260;2024-01-27T16:06:40;2.92;;;1.58;;
15356;SDS011;7778;48.792;9.260;2024-01-27T16:09:26;5.85;;;1.13;;
15356;SDS011;7778;48.792;9.260;2024-01-27T16:12:12;1.90;;;0.95;;
15356;SDS011;7778;48.792;9.260;2024-01-27T16:14:57;0.93;;;0.77;;
15356;SDS011;7778;48.792;9.260;2024-01-27T16:17:44;1.10;;;1.00;;
15356;SDS011;7778;48.792;9.260;2024-01-27T16:20:30;3.40;;;1.25;;
15356;SDS011;7778;48.792;9.260;2024-01-27T16:23:15;3.97;;;1.42;;
15356;SDS011;7778;48.792;9.260;2024-01-27T16:26:01;2.33;;;1.25;;
15356;SDS011;7778;48.792;9.260;2024-01-27T16:28:47;1.95;;;1.20;;
15356;SDS011;7778;48.792;9.260;2024-01-27T16:31:33;1.85;;;1.63;;
15356;SDS011;7778;48.792;9.260;2024-01-27T16:34:20;6.30;;;1.40;;
15356;SDS011;7778;48.792;9.260;2024-01-27T16:37:06;3.70;;;1.80;;
15356;SDS011;7778;48.792;9.260;2024-01-27T16:39:51;7.53;;;2.33;;
15356;SDS011;7778;48.792;9.260;2024-01-27T16:42:37;5.50;;;2.35;;
15356;SDS011;7778;48.792;9.260;2024-01-27T16:45:23;5.07;;;2.58;;
15356;SDS011;7778;48.792;9.260;2024-01-27T16:48:08;5.07;;;2.17;;
15356;SDS011;7778;48.792;9.260;2024-01-27T16:50:55;3.65;;;2.08;;
15356;SDS011;7778;48.792;9.260;2024-01-27T16:53:41;5.97;;;2.15;;
15356;SDS011;7778;48.792;9.260;2024-01-27T16:56:26;9.38;;;2.65;;